createdAt,value
2019-02-28T00:00:00.862Z,68.40
2019-02-28T00:02:34.348Z,68.12
2019-02-28T00:05:06.830Z,67.97
2019-02-28T00:07:38.794Z,68.03
2019-02-28T00:10:10.912Z,68.27
2019-02-28T00:12:45.248Z,68.20
2019-02-28T00:15:16.271Z,68.00
2019-02-28T00:17:48.062Z,68.03
2019-02-28T00:20:19.942Z,68.26
2019-02-28T00:22:51.816Z,68.67
2019-02-28T00:25:23.709Z,68.85
2019-02-28T00:27:55.625Z,68.05
2019-02-28T00:30:27.512Z,67.77
2019-02-28T00:32:59.959Z,67.72
2019-02-28T00:35:31.934Z,67.55
2019-02-28T00:38:03.767Z,67.21
2019-02-28T00:40:38.480Z,66.71
2019-02-28T00:43:09.112Z,66.56
2019-02-28T00:45:40.931Z,66.02
2019-02-28T00:48:12.795Z,65.79
2019-02-28T00:50:44.656Z,65.79
2019-02-28T00:53:16.598Z,65.72
2019-02-28T00:55:48.411Z,65.70
2019-02-28T00:58:21.286Z,65.58
2019-02-28T01:00:53.160Z,65.42
2019-02-28T01:03:27.444Z,65.48
2019-02-28T01:05:58.494Z,65.50
2019-02-28T01:08:30.304Z,65.36
2019-02-28T01:11:02.532Z,65.18
2019-02-28T01:13:46.493Z,64.92
2019-02-28T01:16:19.304Z,64.64
2019-02-28T01:18:52.000Z,64.45
2019-02-28T01:21:24.586Z,64.49
2019-02-28T01:23:56.716Z,64.43
2019-02-28T01:26:30.510Z,64.07
2019-02-28T01:29:02.771Z,63.83
2019-02-28T01:31:34.865Z,64.09
2019-02-28T01:34:06.911Z,63.87
2019-02-28T01:36:38.674Z,64.14
2019-02-28T01:39:13.009Z,64.06
2019-02-28T01:41:49.442Z,65.14
2019-02-28T01:44:21.287Z,64.66
2019-02-28T01:46:56.451Z,65.38
2019-02-28T01:49:30.559Z,65.27
2019-02-28T01:52:10.057Z,65.30
2019-02-28T01:54:42.941Z,65.88
2019-02-28T01:57:16.900Z,66.25
2019-02-28T01:59:52.876Z,66.08
2019-02-28T02:02:24.201Z,65.76
2019-02-28T02:04:57.258Z,66.06
2019-02-28T02:07:30.547Z,65.80
2019-02-28T02:10:02.872Z,65.42
2019-02-28T02:12:38.607Z,64.97
2019-02-28T02:15:11.259Z,65.10
2019-02-28T02:17:50.205Z,64.89
2019-02-28T02:20:23.452Z,64.52
2019-02-28T02:22:55.683Z,64.44
2019-02-28T02:25:27.600Z,64.20
2019-02-28T02:27:59.435Z,63.52
2019-02-28T02:30:31.281Z,63.28
2019-02-28T02:33:03.061Z,63.06
2019-02-28T02:35:34.867Z,62.94
2019-02-28T02:38:06.732Z,63.45
2019-02-28T02:40:38.614Z,62.95
2019-02-28T02:43:10.471Z,62.51
2019-02-28T02:45:43.829Z,62.59
2019-02-28T02:48:15.869Z,62.91
2019-02-28T02:50:47.721Z,63.10
2019-02-28T02:53:19.543Z,63.02
2019-02-28T02:55:51.355Z,62.88
2019-02-28T02:58:26.725Z,62.73
2019-02-28T03:00:56.671Z,62.74
2019-02-28T03:03:28.548Z,62.62
2019-02-28T03:06:00.444Z,62.43
2019-02-28T03:08:36.237Z,62.14
2019-02-28T03:11:05.790Z,61.99
2019-02-28T03:13:42.137Z,61.79
2019-02-28T03:16:13.831Z,61.12
2019-02-28T03:18:45.968Z,61.04
2019-02-28T03:21:17.733Z,61.54
2019-02-28T03:23:49.554Z,61.08
2019-02-28T03:26:21.386Z,60.54
2019-02-28T03:28:53.223Z,60.58
2019-02-28T03:31:25.067Z,60.26
2019-02-28T03:34:10.372Z,60.23
2019-02-28T03:36:30.414Z,59.70
2019-02-28T03:39:02.287Z,59.94
2019-02-28T03:41:35.685Z,59.92
2019-02-28T03:44:07.538Z,59.66
2019-02-28T03:46:39.442Z,59.59
2019-02-28T03:49:12.515Z,59.64
2019-02-28T03:51:44.476Z,59.79
2019-02-28T03:54:16.295Z,59.85
2019-02-28T03:56:52.702Z,59.18
2019-02-28T03:59:21.911Z,59.24
2019-02-28T04:01:53.822Z,58.92
2019-02-28T04:04:25.840Z,58.77
2019-02-28T04:06:57.747Z,58.66
2019-02-28T04:09:29.537Z,58.56
2019-02-28T04:12:07.190Z,58.62
2019-02-28T04:14:34.965Z,59.00
2019-02-28T04:17:06.839Z,58.92
2019-02-28T04:19:38.651Z,58.98
2019-02-28T04:22:10.457Z,59.14
2019-02-28T04:24:46.324Z,59.30
2019-02-28T04:27:15.822Z,58.93
2019-02-28T04:29:47.647Z,58.89
2019-02-28T04:32:26.371Z,58.86
2019-02-28T04:34:53.073Z,59.23
2019-02-28T04:37:24.930Z,59.03
2019-02-28T04:39:57.723Z,59.11
2019-02-28T04:42:29.509Z,58.94
2019-02-28T04:45:01.406Z,58.92
2019-02-28T04:47:33.522Z,59.22
2019-02-28T04:50:05.923Z,59.33
2019-02-28T04:52:37.758Z,59.52
2019-02-28T04:55:10.030Z,59.62
2019-02-28T04:57:41.837Z,59.66
2019-02-28T05:00:15.589Z,59.48
2019-02-28T05:02:47.481Z,59.29
2019-02-28T05:05:19.470Z,59.33
2019-02-28T05:07:51.398Z,59.18
2019-02-28T05:10:23.221Z,59.41
2019-02-28T05:12:55.058Z,59.63
2019-02-28T05:15:27.196Z,59.78
2019-02-28T05:17:59.221Z,59.80
2019-02-28T05:20:32.861Z,59.87
2019-02-28T05:23:04.958Z,59.89
2019-02-28T05:25:38.910Z,59.91
2019-02-28T05:28:11.053Z,60.01
2019-02-28T05:30:43.124Z,59.95
2019-02-28T05:33:15.365Z,60.01
2019-02-28T05:35:47.317Z,60.05
2019-02-28T05:38:21.104Z,60.09
2019-02-28T05:40:55.516Z,59.98
2019-02-28T05:43:32.132Z,60.26
2019-02-28T05:46:06.121Z,60.19
2019-02-28T05:48:41.510Z,59.94
2019-02-28T05:52:19.929Z,59.91
2019-02-28T05:54:47.245Z,60.30
2019-02-28T05:57:08.180Z,60.50
2019-02-28T06:00:01.900Z,60.63
2019-02-28T06:02:36.193Z,61.10
2019-02-28T06:05:12.027Z,61.33
2019-02-28T06:07:42.967Z,61.25
2019-02-28T06:10:15.290Z,61.50
2019-02-28T06:13:04.361Z,61.64
2019-02-28T06:15:38.340Z,61.79
2019-02-28T06:18:12.697Z,61.74
2019-02-28T06:20:44.383Z,62.10
2019-02-28T06:23:16.403Z,61.45
2019-02-28T06:25:48.274Z,61.48
2019-02-28T06:28:20.215Z,61.48
2019-02-28T06:30:51.989Z,61.55
2019-02-28T06:33:23.845Z,61.47
2019-02-28T06:35:55.721Z,61.28
2019-02-28T06:38:27.606Z,61.41
2019-02-28T06:40:59.444Z,61.68
2019-02-28T06:43:33.651Z,61.66
2019-02-28T06:46:08.498Z,61.73
2019-02-28T06:48:39.275Z,61.74
2019-02-28T06:51:11.241Z,61.73
2019-02-28T06:53:43.105Z,61.88
2019-02-28T06:56:16.361Z,61.94
2019-02-28T06:58:48.925Z,62.16
2019-02-28T07:01:22.859Z,62.34
2019-02-28T07:03:54.929Z,61.91
2019-02-28T07:06:26.879Z,61.87
2019-02-28T07:09:02.161Z,61.54
2019-02-28T07:11:34.141Z,61.51
2019-02-28T07:14:05.982Z,61.79
2019-02-28T07:16:38.113Z,61.65
2019-02-28T07:19:09.911Z,61.68
2019-02-28T07:21:43.923Z,61.37
2019-02-28T07:24:16.069Z,61.31
2019-02-28T07:26:48.323Z,61.46
2019-02-28T07:29:20.457Z,61.65
2019-02-28T07:31:52.341Z,61.48
2019-02-28T07:34:24.288Z,61.43
2019-02-28T07:37:05.070Z,61.58
2019-02-28T07:39:40.477Z,61.78
2019-02-28T07:42:12.080Z,61.76
2019-02-28T07:44:44.078Z,61.61
2019-02-28T07:47:17.711Z,61.62
2019-02-28T07:49:50.301Z,61.25
2019-02-28T07:52:22.397Z,60.71
2019-02-28T07:54:55.884Z,60.76
2019-02-28T07:57:29.951Z,60.64
2019-02-28T08:00:01.776Z,60.52
2019-02-28T08:02:35.718Z,59.76
2019-02-28T08:05:07.988Z,59.45
2019-02-28T08:07:39.824Z,58.41
2019-02-28T08:10:15.957Z,58.36
2019-02-28T08:12:48.344Z,58.70
2019-02-28T08:15:22.854Z,57.79
2019-02-28T08:17:54.868Z,57.42
2019-02-28T08:20:26.780Z,57.89
2019-02-28T08:22:58.628Z,58.02
2019-02-28T08:25:30.538Z,57.50
2019-02-28T08:28:02.542Z,57.58
2019-02-28T08:30:34.416Z,57.44
2019-02-28T08:33:06.445Z,56.99
2019-02-28T08:35:38.244Z,56.85
2019-02-28T08:38:10.116Z,57.07
2019-02-28T08:40:41.941Z,56.83
2019-02-28T08:43:14.133Z,56.81
2019-02-28T08:45:46.059Z,56.83
2019-02-28T08:48:17.879Z,56.31
2019-02-28T08:50:52.620Z,55.92
2019-02-28T08:53:23.353Z,56.05
2019-02-28T08:55:55.370Z,55.75
2019-02-28T08:58:27.385Z,55.97
2019-02-28T09:00:59.274Z,56.23
2019-02-28T09:03:31.204Z,56.17
2019-02-28T09:06:03.821Z,55.76
2019-02-28T09:08:36.646Z,56.24
2019-02-28T09:11:08.486Z,56.80
2019-02-28T09:13:42.854Z,56.75
2019-02-28T09:16:16.289Z,56.50
2019-02-28T09:18:48.660Z,56.69
2019-02-28T09:21:20.978Z,56.54
2019-02-28T09:23:54.542Z,56.84
2019-02-28T09:26:28.280Z,56.50
2019-02-28T09:29:00.571Z,56.53
2019-02-28T09:31:32.904Z,56.37
2019-02-28T09:34:06.487Z,56.40
2019-02-28T09:36:38.788Z,55.94
2019-02-28T09:39:11.120Z,56.13
2019-02-28T09:41:43.368Z,55.96
2019-02-28T09:44:31.326Z,55.69
2019-02-28T09:47:11.855Z,55.46
2019-02-28T09:49:48.056Z,55.39
2019-02-28T09:52:20.716Z,55.02
2019-02-28T09:54:56.311Z,55.24
2019-02-28T09:57:30.251Z,54.74
2019-02-28T10:00:03.088Z,54.74
2019-02-28T10:02:37.005Z,54.87
2019-02-28T10:05:11.776Z,54.82
2019-02-28T10:07:44.634Z,53.98
2019-02-28T10:10:21.071Z,53.43
2019-02-28T10:12:57.588Z,52.84
2019-02-28T10:15:33.422Z,52.52
2019-02-28T10:18:07.911Z,52.60
2019-02-28T10:20:40.455Z,52.32
2019-02-28T10:23:28.115Z,52.18
2019-02-28T10:26:00.999Z,52.03
2019-02-28T10:28:43.112Z,52.23
2019-02-28T10:31:15.538Z,51.97
2019-02-28T10:33:52.547Z,51.61
2019-02-28T10:36:25.187Z,51.35
2019-02-28T10:39:02.731Z,51.28
2019-02-28T10:42:05.041Z,51.43
2019-02-28T10:44:53.571Z,51.60
2019-02-28T10:47:52.088Z,51.49
2019-02-28T10:50:49.700Z,51.33
2019-02-28T10:53:46.020Z,51.10
2019-02-28T10:56:39.074Z,51.50
2019-02-28T10:59:24.328Z,51.64
2019-02-28T11:02:05.165Z,51.77
2019-02-28T11:05:00.007Z,51.82
2019-02-28T11:08:12.971Z,51.95
2019-02-28T11:11:10.575Z,52.12
2019-02-28T11:13:51.176Z,52.24
2019-02-28T11:16:36.142Z,51.93
2019-02-28T11:19:18.562Z,52.37
2019-02-28T11:22:11.802Z,51.88
2019-02-28T11:24:53.522Z,51.94
2019-02-28T11:27:38.604Z,51.83
2019-02-28T11:30:14.125Z,51.90
2019-02-28T11:32:56.532Z,51.61
2019-02-28T11:35:59.139Z,51.21
2019-02-28T11:39:06.199Z,51.28
2019-02-28T11:41:49.278Z,51.45
2019-02-28T11:44:47.836Z,51.15
2019-02-28T11:47:34.496Z,51.02
2019-02-28T11:50:14.971Z,51.47
2019-02-28T11:53:03.251Z,51.53
2019-02-28T11:55:38.186Z,51.68
2019-02-28T11:58:51.295Z,51.52
2019-02-28T12:02:00.830Z,51.23
2019-02-28T12:03:49.953Z,51.31
2019-02-28T12:06:22.340Z,51.10
2019-02-28T12:08:55.358Z,51.04
2019-02-28T12:11:27.241Z,50.78
2019-02-28T12:13:59.135Z,50.63
2019-02-28T12:16:35.206Z,50.96
2019-02-28T12:19:04.810Z,50.49
2019-02-28T12:21:37.948Z,49.86
2019-02-28T12:24:11.421Z,50.39
2019-02-28T12:26:43.375Z,49.99
2019-02-28T12:29:15.251Z,50.42
2019-02-28T12:31:47.237Z,50.76
2019-02-28T12:34:19.136Z,50.25
2019-02-28T12:36:50.950Z,50.79
2019-02-28T12:39:23.681Z,51.67
2019-02-28T12:41:56.576Z,51.11
2019-02-28T12:44:29.263Z,51.73
2019-02-28T12:47:03.307Z,51.71
2019-02-28T12:49:34.737Z,51.92
2019-02-28T12:52:06.982Z,51.63
2019-02-28T12:54:40.474Z,51.54
2019-02-28T12:57:12.510Z,51.74
2019-02-28T12:59:47.446Z,51.96
2019-02-28T13:02:19.441Z,51.82
2019-02-28T13:04:51.463Z,51.33
2019-02-28T13:07:23.368Z,51.44
2019-02-28T13:09:55.229Z,51.20
2019-02-28T13:12:27.147Z,51.08
2019-02-28T13:14:59.134Z,50.81
2019-02-28T13:17:31.647Z,50.44
2019-02-28T13:20:07.777Z,50.14
2019-02-28T13:22:39.680Z,49.97
2019-02-28T13:25:12.449Z,49.20
2019-02-28T13:27:45.293Z,49.10
2019-02-28T13:30:23.698Z,49.25
2019-02-28T13:32:55.967Z,49.52
2019-02-28T13:35:30.841Z,49.59
2019-02-28T13:38:02.706Z,49.37
2019-02-28T13:40:34.711Z,49.46
2019-02-28T13:43:06.604Z,48.66
2019-02-28T13:45:38.600Z,48.40
2019-02-28T13:48:10.562Z,47.80
2019-02-28T13:50:42.543Z,47.59
2019-02-28T13:53:17.808Z,47.30
2019-02-28T13:55:52.777Z,47.17
2019-02-28T13:58:23.575Z,47.04
2019-02-28T14:00:56.448Z,46.81
2019-02-28T14:03:29.315Z,46.88
2019-02-28T14:06:01.285Z,46.85
2019-02-28T14:08:33.181Z,46.23
2019-02-28T14:11:05.797Z,46.02
2019-02-28T14:13:38.738Z,45.46
2019-02-28T14:16:10.921Z,45.58
2019-02-28T14:18:45.432Z,45.10
2019-02-28T14:21:16.625Z,45.10
2019-02-28T14:23:48.795Z,44.99
2019-02-28T14:26:20.750Z,45.57
2019-02-28T14:28:52.655Z,44.96
2019-02-28T14:31:24.663Z,45.05
2019-02-28T14:33:56.615Z,45.05
2019-02-28T14:36:28.537Z,45.36
2019-02-28T14:39:00.605Z,45.68
2019-02-28T14:41:33.934Z,46.02
2019-02-28T14:44:05.868Z,46.15
2019-02-28T14:46:38.052Z,46.34
2019-02-28T14:49:12.623Z,46.52
2019-02-28T14:51:44.970Z,46.55
2019-02-28T14:54:16.980Z,46.47
2019-02-28T14:56:49.099Z,46.77
2019-02-28T14:59:23.326Z,46.90
2019-02-28T15:01:56.069Z,47.48
2019-02-28T15:04:31.322Z,47.85
2019-02-28T15:07:04.455Z,48.15
2019-02-28T15:09:39.137Z,48.33
2019-02-28T15:12:14.787Z,48.58
2019-02-28T15:14:46.726Z,48.80
2019-02-28T15:17:19.073Z,49.08
2019-02-28T15:19:51.114Z,49.34
2019-02-28T15:22:23.149Z,49.46
2019-02-28T15:24:55.181Z,49.71
2019-02-28T15:27:27.703Z,49.98
2019-02-28T15:30:02.701Z,50.01
2019-02-28T15:32:33.301Z,50.40
2019-02-28T15:35:06.017Z,50.15
2019-02-28T15:37:37.941Z,50.20
2019-02-28T15:40:13.878Z,50.34
2019-02-28T15:42:46.109Z,50.97
2019-02-28T15:45:19.981Z,51.11
2019-02-28T15:47:59.123Z,51.48
2019-02-28T15:50:31.394Z,51.62
2019-02-28T15:53:03.452Z,51.73
2019-02-28T15:55:36.609Z,51.74
2019-02-28T15:58:09.026Z,51.70
2019-02-28T16:00:41.490Z,51.77
2019-02-28T16:03:16.794Z,51.86
2019-02-28T16:05:49.078Z,52.09
2019-02-28T16:08:21.832Z,51.99
2019-02-28T16:10:53.820Z,52.42
2019-02-28T16:13:26.548Z,52.85
2019-02-28T16:15:58.611Z,53.40
2019-02-28T16:18:30.723Z,53.92
2019-02-28T16:21:03.518Z,54.10
2019-02-28T16:23:37.210Z,54.54
2019-02-28T16:26:09.069Z,55.07
2019-02-28T16:28:42.801Z,55.30
2019-02-28T16:31:14.830Z,55.70
2019-02-28T16:33:47.182Z,56.27
2019-02-28T16:36:19.027Z,56.50
2019-02-28T16:38:51.199Z,56.93
2019-02-28T16:41:23.617Z,56.83
2019-02-28T16:43:57.168Z,56.92
2019-02-28T16:46:30.233Z,57.34
2019-02-28T16:49:02.152Z,58.00
2019-02-28T16:51:35.324Z,58.31
2019-02-28T16:54:07.633Z,58.44
2019-02-28T16:56:39.651Z,58.77
2019-02-28T16:59:11.797Z,59.30
2019-02-28T17:01:44.243Z,58.86
2019-02-28T17:04:18.155Z,58.43
2019-02-28T17:06:50.188Z,58.28
2019-02-28T17:09:31.919Z,58.89
2019-02-28T17:12:23.675Z,58.61
2019-02-28T17:14:57.577Z,58.82
2019-02-28T17:17:48.237Z,58.71
2019-02-28T17:20:20.224Z,59.04
2019-02-28T17:22:52.181Z,59.14
2019-02-28T17:25:24.745Z,59.59
2019-02-28T17:28:04.823Z,59.35
2019-02-28T17:30:56.040Z,59.74
2019-02-28T17:33:28.257Z,59.99
2019-02-28T17:36:00.158Z,60.31
2019-02-28T17:38:37.241Z,60.54
2019-02-28T17:41:07.823Z,60.85
2019-02-28T17:43:42.472Z,60.93
2019-02-28T17:46:14.934Z,61.23
2019-02-28T17:50:18.244Z,61.59
2019-02-28T17:53:22.931Z,61.91
2019-02-28T17:57:16.581Z,62.22
2019-02-28T18:01:04.068Z,62.52
2019-02-28T18:04:33.698Z,62.68
2019-02-28T18:07:46.256Z,62.72
2019-02-28T18:11:23.907Z,63.14
2019-02-28T18:14:31.230Z,63.78
2019-02-28T18:17:54.637Z,64.16
2019-02-28T18:21:17.679Z,64.24
2019-02-28T18:24:59.055Z,64.87
2019-02-28T18:28:08.884Z,64.90
2019-02-28T18:31:22.279Z,65.25
2019-02-28T18:39:55.537Z,66.54
2019-02-28T18:42:34.665Z,66.87
2019-02-28T18:45:11.121Z,67.07
2019-02-28T18:47:44.510Z,67.12
2019-02-28T18:50:17.005Z,67.46
2019-02-28T18:52:49.629Z,67.98
2019-02-28T18:55:21.797Z,68.42
2019-02-28T18:57:53.960Z,69.02
2019-02-28T19:00:25.953Z,69.48
2019-02-28T19:02:58.444Z,69.96
2019-02-28T19:05:30.610Z,70.17
2019-02-28T19:08:05.685Z,70.62
2019-02-28T19:10:37.716Z,70.97
2019-02-28T19:13:09.866Z,71.25
2019-02-28T19:15:41.841Z,71.50
2019-02-28T19:18:13.860Z,71.47
2019-02-28T19:20:45.996Z,71.39
2019-02-28T19:23:18.083Z,71.31
2019-02-28T19:25:50.277Z,71.54
2019-02-28T19:28:22.697Z,71.76
2019-02-28T19:30:55.689Z,72.14
2019-02-28T19:33:27.724Z,72.46
2019-02-28T19:35:59.947Z,72.78
2019-02-28T19:38:32.563Z,72.95
2019-02-28T19:41:04.729Z,72.90
2019-02-28T19:43:36.933Z,72.87
2019-02-28T19:46:09.895Z,72.83
2019-02-28T19:48:43.631Z,73.16
2019-02-28T19:51:15.812Z,73.27
2019-02-28T19:53:48.329Z,73.56
2019-02-28T19:56:21.641Z,74.07
2019-02-28T19:58:54.115Z,74.10
2019-02-28T20:01:26.616Z,74.02
2019-02-28T20:03:59.025Z,74.03
2019-02-28T20:06:31.529Z,74.27
2019-02-28T20:09:05.447Z,74.72
2019-02-28T20:11:37.959Z,75.12
2019-02-28T20:14:10.013Z,75.58
2019-02-28T20:16:42.571Z,75.66
2019-02-28T20:19:14.660Z,75.62
2019-02-28T20:21:47.024Z,75.76
2019-02-28T20:24:19.413Z,76.13
2019-02-28T20:26:51.905Z,76.21
2019-02-28T20:29:24.048Z,76.54
2019-02-28T20:31:56.597Z,76.59
2019-02-28T20:34:29.241Z,76.84
2019-02-28T20:37:01.612Z,77.24
2019-02-28T20:39:33.820Z,77.37
2019-02-28T20:42:05.763Z,77.71
2019-02-28T20:44:37.758Z,78.23
2019-02-28T20:47:09.909Z,78.45
2019-02-28T20:49:42.202Z,78.78
2019-02-28T20:52:14.299Z,78.81
2019-02-28T20:54:46.486Z,79.13
2019-02-28T20:58:28.752Z,79.41
2019-02-28T21:01:00.838Z,79.81
2019-02-28T21:03:32.878Z,80.48
2019-02-28T21:06:05.934Z,80.76
2019-02-28T21:08:37.932Z,80.87
2019-02-28T21:11:09.956Z,81.08
2019-02-28T21:13:42.018Z,81.00
2019-02-28T21:16:13.919Z,81.29
2019-02-28T21:18:45.898Z,81.63
2019-02-28T21:21:17.846Z,81.87
2019-02-28T21:23:49.902Z,82.08
2019-02-28T21:26:21.929Z,81.93
2019-02-28T21:28:53.838Z,82.03
2019-02-28T21:31:25.833Z,81.60
2019-02-28T21:33:57.795Z,81.22
2019-02-28T21:36:29.770Z,80.83
2019-02-28T21:39:01.768Z,80.43
2019-02-28T21:41:35.370Z,80.04
2019-02-28T21:44:07.465Z,80.15
2019-02-28T21:46:39.448Z,80.47
2019-02-28T21:49:11.382Z,80.28
2019-02-28T21:51:43.375Z,80.18
2019-02-28T21:54:15.306Z,80.31
2019-02-28T21:56:47.311Z,80.47
2019-02-28T21:59:19.204Z,80.42
2019-02-28T22:01:51.123Z,80.78
2019-02-28T22:04:22.987Z,80.80
2019-02-28T22:06:54.912Z,80.71
2019-02-28T22:09:26.739Z,80.49
2019-02-28T22:11:58.623Z,80.50
2019-02-28T22:14:30.588Z,80.22
2019-02-28T22:17:02.479Z,80.27
2019-02-28T22:19:34.287Z,80.23
2019-02-28T22:22:06.135Z,80.52
2019-02-28T22:24:38.029Z,81.35
2019-02-28T22:27:09.803Z,81.27
2019-02-28T22:29:41.796Z,80.72
2019-02-28T22:32:24.463Z,80.59
2019-02-28T22:35:21.521Z,80.65
2019-02-28T22:37:53.321Z,80.79
2019-02-28T22:40:25.293Z,81.11
2019-02-28T22:42:57.213Z,81.25
2019-02-28T22:45:29.181Z,81.22
2019-02-28T22:48:01.060Z,81.23
2019-02-28T22:50:33.956Z,81.32
2019-02-28T22:53:06.006Z,81.27
2019-02-28T22:55:37.813Z,81.30
2019-02-28T22:58:12.945Z,81.50
2019-02-28T23:01:03.918Z,81.58
2019-02-28T23:03:38.450Z,81.67
2019-02-28T23:06:10.284Z,81.91
2019-02-28T23:08:42.157Z,82.25
2019-02-28T23:11:14.456Z,82.29
2019-02-28T23:13:46.268Z,82.23
2019-02-28T23:16:18.113Z,82.10
2019-02-28T23:18:49.956Z,81.92
2019-02-28T23:21:21.795Z,81.98
2019-02-28T23:23:53.635Z,82.17
2019-02-28T23:26:28.815Z,82.30
2019-02-28T23:29:16.380Z,82.40
2019-02-28T23:32:47.110Z,82.75
2019-02-28T23:35:33.228Z,82.99
2019-02-28T23:38:06.087Z,83.47
2019-02-28T23:40:38.054Z,84.13
2019-02-28T23:43:09.891Z,84.40
2019-02-28T23:45:41.769Z,84.46
2019-02-28T23:48:13.833Z,84.58
2019-02-28T23:50:45.751Z,85.12
2019-02-28T23:53:17.567Z,85.40
2019-02-28T23:55:49.432Z,85.37
2019-02-28T23:58:21.344Z,85.16
